Aviation Digital Data Service (ADDS)

Output produced by TAFs form (1257 UTC 14 December 2017)
found at http://aviationweather.gov/adds/tafs/
 
KSJC 141253Z AUTO 00000KT 10SM CLR 05/02 A3006 RMK AO2 SLP178 T00500017
KSJC 141120Z 1412/1512 VRB03KT P6SM FEW200 
     FM142100 31007KT P6SM SKC 
     FM150400 VRB03KT P6SM FEW200
       
KWVI 141253Z AUTO 00000KT 10SM CLR 04/01 A3004 RMK AO2 SLP173 T00390006
KE16 141230Z AUTO 00000KT 10SM CLR 01/00 A3008 RMK AO2 PWINO PNO
KHAF 141255Z AUTO 32005KT 3SM BR SCT002 09/07 A3001 RMK AO2
KCVH 141235Z AUTO 16005KT 10SM CLR 00/M03 A3008 RMK A01